createdAt,value
2022-10-16T00:02:53.625Z,14.90
2022-10-16T00:06:15.778Z,14.80
2022-10-16T00:09:38.685Z,14.80
2022-10-16T00:13:00.232Z,14.80
2022-10-16T00:16:21.786Z,14.80
2022-10-16T00:19:43.355Z,14.80
2022-10-16T00:23:05.165Z,14.80
2022-10-16T00:26:28.898Z,14.80
2022-10-16T00:29:50.872Z,14.80
2022-10-16T00:33:12.429Z,14.70
2022-10-16T00:36:33.984Z,14.70
2022-10-16T00:39:55.528Z,14.50
2022-10-16T00:43:32.284Z,14.50
2022-10-16T00:46:55.376Z,14.40
2022-10-16T00:50:19.434Z,14.30
2022-10-16T00:53:41.011Z,14.30
2022-10-16T00:57:04.905Z,14.20
2022-10-16T01:00:27.538Z,14.20
2022-10-16T01:03:50.431Z,14.10
2022-10-16T01:07:15.108Z,14.10
2022-10-16T01:10:39.501Z,14.00
2022-10-16T01:14:03.841Z,14.00
2022-10-16T01:17:29.406Z,14.00
2022-10-16T01:20:54.428Z,14.00
2022-10-16T01:24:18.536Z,14.00
2022-10-16T01:27:43.124Z,14.00
2022-10-16T01:31:05.023Z,14.00
2022-10-16T01:34:32.966Z,14.00
2022-10-16T01:37:57.137Z,14.10
2022-10-16T01:41:22.219Z,14.10
2022-10-16T01:44:46.440Z,14.00
2022-10-16T01:48:08.278Z,14.00
2022-10-16T01:51:30.195Z,14.00
2022-10-16T01:54:53.488Z,14.00
2022-10-16T01:58:15.524Z,14.00
2022-10-16T02:01:40.179Z,14.00
2022-10-16T02:05:06.384Z,14.00
2022-10-16T02:08:29.482Z,14.00
2022-10-16T02:11:53.291Z,14.00
2022-10-16T02:15:14.839Z,14.00
2022-10-16T02:18:37.787Z,14.00
2022-10-16T02:22:01.420Z,14.00
2022-10-16T02:25:24.976Z,14.10
2022-10-16T02:28:48.630Z,14.10
2022-10-16T02:32:10.997Z,14.10
2022-10-16T02:35:34.637Z,14.10
2022-10-16T02:38:56.249Z,14.10
2022-10-16T02:42:18.911Z,14.10
2022-10-16T02:45:40.573Z,14.10
2022-10-16T02:49:02.110Z,14.10
2022-10-16T02:52:25.613Z,14.10
2022-10-16T02:55:47.395Z,14.10
2022-10-16T02:59:08.939Z,14.10
2022-10-16T03:02:30.484Z,14.00
2022-10-16T03:05:52.022Z,14.00
2022-10-16T03:09:14.996Z,14.00
2022-10-16T03:12:36.544Z,14.00
2022-10-16T03:16:00.726Z,14.00
2022-10-16T03:19:22.268Z,14.00
2022-10-16T03:22:43.814Z,14.00
2022-10-16T03:26:06.812Z,13.90
2022-10-16T03:29:28.433Z,13.90
2022-10-16T03:32:49.980Z,13.90
2022-10-16T03:36:11.539Z,13.90
2022-10-16T03:39:33.255Z,13.80
2022-10-16T03:42:56.289Z,13.80
2022-10-16T03:46:18.139Z,13.80
2022-10-16T03:49:39.963Z,13.80
2022-10-16T03:53:01.511Z,13.80
2022-10-16T03:56:23.054Z,13.80
2022-10-16T03:59:45.934Z,13.80
2022-10-16T04:03:07.450Z,13.80
2022-10-16T04:06:29.274Z,13.70
2022-10-16T04:09:50.895Z,13.70
2022-10-16T04:13:12.741Z,13.70
2022-10-16T04:16:35.666Z,13.70
2022-10-16T04:19:57.227Z,13.70
2022-10-16T04:23:18.775Z,13.60
2022-10-16T04:26:40.372Z,13.70
2022-10-16T04:30:01.928Z,13.60
2022-10-16T04:33:27.244Z,13.60
2022-10-16T04:36:49.214Z,13.60
2022-10-16T04:40:10.784Z,13.70
2022-10-16T04:43:32.343Z,13.70
2022-10-16T04:46:53.919Z,13.70
2022-10-16T04:50:16.970Z,13.70
2022-10-16T04:53:38.490Z,13.70
2022-10-16T04:57:00.035Z,13.60
2022-10-16T05:00:21.573Z,13.60
2022-10-16T05:03:43.111Z,13.70
2022-10-16T05:07:06.004Z,13.70
2022-10-16T05:10:27.570Z,13.70
2022-10-16T05:13:50.996Z,13.70
2022-10-16T05:17:15.396Z,13.70
2022-10-16T05:20:37.006Z,13.70
2022-10-16T05:23:59.868Z,13.70
2022-10-16T05:27:21.542Z,13.70
2022-10-16T05:30:43.067Z,13.70
2022-10-16T05:34:04.605Z,13.70
2022-10-16T05:37:26.343Z,13.60
2022-10-16T05:40:52.661Z,13.50
2022-10-16T05:44:14.187Z,13.50
2022-10-16T05:47:35.765Z,13.40
2022-10-16T05:50:58.111Z,13.40
2022-10-16T05:54:20.158Z,13.50
2022-10-16T05:57:43.034Z,13.40
2022-10-16T06:01:05.511Z,13.50
2022-10-16T06:04:27.148Z,13.50
2022-10-16T06:07:48.683Z,13.70
2022-10-16T06:11:12.017Z,13.80
2022-10-16T06:14:34.926Z,13.90
2022-10-16T06:17:56.480Z,13.90
2022-10-16T06:21:18.724Z,14.10
2022-10-16T06:24:40.550Z,14.20
2022-10-16T06:28:02.089Z,14.20
2022-10-16T06:31:25.079Z,14.30
2022-10-16T06:34:46.954Z,14.40
2022-10-16T06:38:08.563Z,14.50
2022-10-16T06:41:30.296Z,14.60
2022-10-16T06:44:51.851Z,14.80
2022-10-16T06:48:14.937Z,15.00
2022-10-16T06:51:37.986Z,15.20
2022-10-16T06:55:02.203Z,15.40
2022-10-16T06:58:23.949Z,15.50
2022-10-16T07:01:45.498Z,15.60
2022-10-16T07:05:08.765Z,15.50
2022-10-16T07:08:31.577Z,15.50
2022-10-16T07:11:53.123Z,15.50
2022-10-16T07:15:14.840Z,15.50
2022-10-16T07:18:36.374Z,15.50
2022-10-16T07:21:59.839Z,15.60
2022-10-16T07:25:21.387Z,15.70
2022-10-16T07:28:43.447Z,15.70
2022-10-16T07:32:05.307Z,15.90
2022-10-16T07:35:26.843Z,15.90
2022-10-16T07:38:51.041Z,16.00
2022-10-16T07:42:14.497Z,16.00
2022-10-16T07:45:36.069Z,16.10
2022-10-16T07:48:57.693Z,16.10
2022-10-16T07:52:19.237Z,16.10
2022-10-16T07:55:42.193Z,16.20
2022-10-16T07:59:03.785Z,16.30
2022-10-16T08:02:25.443Z,16.40
2022-10-16T08:05:47.064Z,16.60
2022-10-16T08:09:09.405Z,16.80
2022-10-16T08:12:32.318Z,16.90
2022-10-16T08:15:54.709Z,16.90
2022-10-16T08:19:16.277Z,16.90
2022-10-16T08:22:37.809Z,16.90
2022-10-16T08:26:02.956Z,17.10
2022-10-16T08:29:25.905Z,17.40
2022-10-16T08:32:47.451Z,17.70
2022-10-16T08:36:10.861Z,18.40
2022-10-16T08:39:32.420Z,19.30
2022-10-16T08:43:00.733Z,19.70
2022-10-16T08:46:27.298Z,20.10
2022-10-16T08:49:54.552Z,20.20
2022-10-16T08:53:18.696Z,20.20
2022-10-16T08:56:40.263Z,19.90
2022-10-16T09:00:12.660Z,19.50
2022-10-16T09:03:43.827Z,19.20
2022-10-16T09:07:09.169Z,19.10
2022-10-16T09:10:36.844Z,19.10
2022-10-16T09:14:03.191Z,19.30
2022-10-16T09:17:38.453Z,20.00
2022-10-16T09:21:05.194Z,20.10
2022-10-16T09:24:29.335Z,20.20
2022-10-16T09:27:53.411Z,20.30
2022-10-16T09:31:17.248Z,20.10
2022-10-16T09:34:41.869Z,20.30
2022-10-16T09:38:04.881Z,20.60
2022-10-16T09:41:26.547Z,21.00
2022-10-16T09:44:48.912Z,21.10
2022-10-16T09:48:11.651Z,21.50
2022-10-16T09:51:34.683Z,21.70
2022-10-16T09:54:58.607Z,21.90
2022-10-16T09:58:22.172Z,21.80
2022-10-16T10:01:45.235Z,21.50
2022-10-16T10:05:17.921Z,21.40
2022-10-16T10:08:39.500Z,21.30
2022-10-16T10:15:33.859Z,21.30
2022-10-16T10:18:58.985Z,21.40
2022-10-16T10:22:23.263Z,21.50
2022-10-16T10:25:50.613Z,21.80
2022-10-16T10:29:15.822Z,22.00
2022-10-16T10:32:42.005Z,22.10
2022-10-16T10:36:07.049Z,22.10
2022-10-16T10:39:31.180Z,22.20
2022-10-16T10:42:56.904Z,22.30
2022-10-16T10:46:24.254Z,22.20
2022-10-16T10:49:51.352Z,22.10
2022-10-16T10:53:19.423Z,22.10
2022-10-16T10:56:46.139Z,22.00
2022-10-16T11:00:13.120Z,21.90
2022-10-16T11:03:47.876Z,21.70
2022-10-16T11:07:12.563Z,21.50
2022-10-16T11:10:38.884Z,21.50
2022-10-16T11:14:01.916Z,21.40
2022-10-16T11:17:26.344Z,21.40
2022-10-16T11:20:51.316Z,21.50
2022-10-16T11:24:18.372Z,21.50
2022-10-16T11:27:42.260Z,21.50
2022-10-16T11:31:08.147Z,21.60
2022-10-16T11:34:35.542Z,22.00
2022-10-16T11:38:03.452Z,22.10
2022-10-16T11:41:28.120Z,22.30
2022-10-16T11:44:54.371Z,22.40
2022-10-16T11:48:19.767Z,22.70
2022-10-16T11:51:43.005Z,22.90
2022-10-16T11:55:13.829Z,22.90
2022-10-16T11:58:38.021Z,23.00
2022-10-16T12:02:08.254Z,22.80
2022-10-16T12:05:33.773Z,22.60
2022-10-16T12:08:55.662Z,22.50
2022-10-16T12:12:31.402Z,22.40
2022-10-16T12:16:04.965Z,22.40
2022-10-16T12:19:27.681Z,22.40
2022-10-16T12:22:50.523Z,22.20
2022-10-16T12:26:12.076Z,22.10
2022-10-16T12:29:36.874Z,22.20
2022-10-16T12:32:59.208Z,22.40
2022-10-16T12:36:28.531Z,22.60
2022-10-16T12:39:50.996Z,22.80
2022-10-16T12:43:13.453Z,22.70
2022-10-16T12:46:38.507Z,22.70
2022-10-16T12:50:02.347Z,22.70
2022-10-16T12:53:27.246Z,22.60
2022-10-16T12:56:57.176Z,22.40
2022-10-16T13:00:23.796Z,22.30
2022-10-16T13:04:02.960Z,22.30
2022-10-16T13:07:42.831Z,22.30
2022-10-16T13:11:06.208Z,22.50
2022-10-16T13:14:35.407Z,22.70
2022-10-16T13:18:02.784Z,23.00
2022-10-16T13:21:31.908Z,23.30
2022-10-16T13:24:59.768Z,23.60
2022-10-16T13:28:22.824Z,23.60
2022-10-16T13:31:45.050Z,23.30
2022-10-16T13:35:18.859Z,23.20
2022-10-16T13:38:41.760Z,23.00
2022-10-16T13:42:08.086Z,23.00
2022-10-16T13:45:30.794Z,23.00
2022-10-16T13:48:58.543Z,22.90
2022-10-16T13:52:21.348Z,22.70
2022-10-16T13:55:44.233Z,22.50
2022-10-16T13:59:06.918Z,22.50
2022-10-16T14:02:30.868Z,22.30
2022-10-16T14:05:53.242Z,22.20
2022-10-16T14:09:20.862Z,22.20
2022-10-16T14:12:43.775Z,22.10
2022-10-16T14:16:07.744Z,22.00
2022-10-16T14:19:30.602Z,22.00
2022-10-16T14:22:59.032Z,22.00
2022-10-16T14:26:22.728Z,22.00
2022-10-16T14:29:45.639Z,22.10
2022-10-16T14:33:20.252Z,22.30
2022-10-16T14:36:42.639Z,22.30
2022-10-16T14:40:04.685Z,22.30
2022-10-16T14:43:30.367Z,22.30
2022-10-16T14:46:53.285Z,22.40
2022-10-16T14:50:14.871Z,22.40
2022-10-16T14:53:36.400Z,22.30
2022-10-16T14:56:59.165Z,22.30
2022-10-16T15:00:22.215Z,22.20
2022-10-16T15:03:45.170Z,22.10
2022-10-16T15:07:08.024Z,22.00
2022-10-16T15:10:29.760Z,21.90
2022-10-16T15:13:51.310Z,21.80
2022-10-16T15:17:12.878Z,21.70
2022-10-16T15:20:36.492Z,21.60
2022-10-16T15:23:58.277Z,21.60
2022-10-16T15:27:19.817Z,21.60
2022-10-16T15:30:41.924Z,21.50
2022-10-16T15:34:03.481Z,21.50
2022-10-16T15:37:26.642Z,21.40
2022-10-16T15:40:49.075Z,21.30
2022-10-16T15:44:10.731Z,21.20
2022-10-16T15:47:32.258Z,21.10
2022-10-16T15:50:53.796Z,21.00
2022-10-16T15:54:16.683Z,20.90
2022-10-16T15:57:38.578Z,20.70
2022-10-16T16:01:01.098Z,20.60
2022-10-16T16:08:04.227Z,20.30
2022-10-16T16:11:27.188Z,20.10
2022-10-16T16:14:48.729Z,20.00
2022-10-16T16:18:10.272Z,19.90
2022-10-16T16:21:31.814Z,19.70
2022-10-16T16:24:53.432Z,19.50
2022-10-16T16:28:16.364Z,19.40
2022-10-16T16:31:37.979Z,19.30
2022-10-16T16:34:59.522Z,19.10
2022-10-16T16:38:21.061Z,18.90
2022-10-16T16:41:42.668Z,18.70
2022-10-16T16:45:06.367Z,18.50
2022-10-16T16:48:27.903Z,18.40
2022-10-16T16:51:49.472Z,18.20
2022-10-16T16:55:11.008Z,18.10
2022-10-16T16:58:32.808Z,17.90
2022-10-16T17:01:57.086Z,17.80
2022-10-16T17:05:19.149Z,17.80
2022-10-16T17:08:41.117Z,17.80
2022-10-16T17:12:02.751Z,17.90
2022-10-16T17:15:24.409Z,17.80
2022-10-16T17:18:47.318Z,17.80
2022-10-16T17:22:08.856Z,17.60
2022-10-16T17:25:32.047Z,17.70
2022-10-16T17:28:56.828Z,17.80
2022-10-16T17:32:18.895Z,17.80
2022-10-16T17:35:42.703Z,17.80
2022-10-16T17:39:06.026Z,17.80
2022-10-16T17:42:28.033Z,17.60
2022-10-16T17:45:49.747Z,17.50
2022-10-16T17:49:11.301Z,17.50
2022-10-16T17:52:34.456Z,17.40
2022-10-16T17:55:55.981Z,17.30
2022-10-16T17:59:17.878Z,17.10
2022-10-16T18:02:39.440Z,17.00
2022-10-16T18:06:01.286Z,16.90
2022-10-16T18:09:24.196Z,16.70
2022-10-16T18:12:45.764Z,16.60
2022-10-16T18:16:08.027Z,16.40
2022-10-16T18:19:29.594Z,16.30
2022-10-16T18:22:51.201Z,16.10
2022-10-16T18:26:14.584Z,16.00
2022-10-16T18:29:36.949Z,15.90
2022-10-16T18:32:58.479Z,15.90
2022-10-16T18:36:21.101Z,15.90
2022-10-16T18:39:46.670Z,15.80
2022-10-16T18:43:09.683Z,15.70
2022-10-16T18:46:31.931Z,15.60
2022-10-16T18:49:53.579Z,15.60
2022-10-16T18:53:15.206Z,15.50
2022-10-16T18:56:37.177Z,15.50
2022-10-16T19:00:00.094Z,15.50
2022-10-16T19:03:21.640Z,15.40
2022-10-16T19:06:44.330Z,15.40
2022-10-16T19:10:07.005Z,15.40
2022-10-16T19:13:29.169Z,15.40
2022-10-16T19:16:52.854Z,15.40
2022-10-16T19:20:15.551Z,15.40
2022-10-16T19:23:38.073Z,15.30
2022-10-16T19:26:59.945Z,15.30
2022-10-16T19:30:22.784Z,15.20
2022-10-16T19:33:46.775Z,15.20
2022-10-16T19:37:08.640Z,15.10
2022-10-16T19:40:30.799Z,15.00
2022-10-16T19:43:52.807Z,14.80
2022-10-16T19:47:14.683Z,14.80
2022-10-16T19:50:37.572Z,14.70
2022-10-16T19:54:00.407Z,14.60
2022-10-16T19:57:22.052Z,14.60
2022-10-16T20:00:43.632Z,14.60
2022-10-16T20:04:05.234Z,14.60
2022-10-16T20:07:30.240Z,14.60
2022-10-16T20:10:54.771Z,14.50
2022-10-16T20:14:16.307Z,14.50
2022-10-16T20:17:38.025Z,14.50
2022-10-16T20:20:59.899Z,14.40
2022-10-16T20:24:23.096Z,14.30
2022-10-16T20:27:45.049Z,14.30
2022-10-16T20:31:07.425Z,14.20
2022-10-16T20:34:29.213Z,14.20
2022-10-16T20:37:50.814Z,14.20
2022-10-16T20:41:14.498Z,14.20
2022-10-16T20:44:36.696Z,14.20
2022-10-16T20:47:58.530Z,14.20
2022-10-16T20:51:21.297Z,14.10
2022-10-16T20:54:44.702Z,14.20
2022-10-16T20:58:07.574Z,14.20
2022-10-16T21:01:29.414Z,14.20
2022-10-16T21:04:51.024Z,14.20
2022-10-16T21:08:12.573Z,14.10
2022-10-16T21:11:35.211Z,14.10
2022-10-16T21:15:13.973Z,14.00
2022-10-16T21:18:38.770Z,14.00
2022-10-16T21:22:03.678Z,14.00
2022-10-16T21:25:25.297Z,14.00
2022-10-16T21:28:46.946Z,13.90
2022-10-16T21:32:09.886Z,13.80
2022-10-16T21:35:31.427Z,13.80
2022-10-16T21:38:53.215Z,13.80
2022-10-16T21:42:14.751Z,13.70
2022-10-16T21:45:36.375Z,13.70
2022-10-16T21:48:59.904Z,13.70
2022-10-16T21:52:21.471Z,13.70
2022-10-16T21:55:43.010Z,13.60
2022-10-16T21:59:04.923Z,13.60
2022-10-16T22:02:26.466Z,13.60
2022-10-16T22:05:49.362Z,13.50
2022-10-16T22:09:11.059Z,13.50
2022-10-16T22:12:32.586Z,13.50
2022-10-16T22:15:54.136Z,13.50
2022-10-16T22:19:17.209Z,13.40
2022-10-16T22:22:40.081Z,13.40
2022-10-16T22:26:02.048Z,13.40
2022-10-16T22:29:23.618Z,13.30
2022-10-16T22:32:45.151Z,13.30
2022-10-16T22:36:07.535Z,13.20
2022-10-16T22:39:30.538Z,13.20
2022-10-16T22:42:52.066Z,13.10
2022-10-16T22:46:15.050Z,13.10
2022-10-16T22:49:36.628Z,13.00
2022-10-16T22:52:58.151Z,13.00
2022-10-16T22:56:21.564Z,12.90
2022-10-16T22:59:43.083Z,12.90
2022-10-16T23:03:04.648Z,12.80
2022-10-16T23:06:26.443Z,12.70
2022-10-16T23:09:47.979Z,12.70
2022-10-16T23:13:11.370Z,12.70
2022-10-16T23:16:32.956Z,12.70
2022-10-16T23:19:54.500Z,12.70
2022-10-16T23:23:16.042Z,12.70
2022-10-16T23:26:37.698Z,12.70
2022-10-16T23:30:00.652Z,12.70
2022-10-16T23:33:22.208Z,12.70
2022-10-16T23:36:43.755Z,12.70
2022-10-16T23:40:05.805Z,12.70
2022-10-16T23:43:27.364Z,12.80
2022-10-16T23:46:50.246Z,12.80
2022-10-16T23:50:11.788Z,12.80
2022-10-16T23:53:33.465Z,12.70
2022-10-16T23:56:55.012Z,12.70
